createdAt,value
2022-08-21T00:01:16.653Z,75.79
2022-08-21T00:03:46.351Z,76.05
2022-08-21T00:06:16.505Z,76.70
2022-08-21T00:08:46.654Z,77.22
2022-08-21T00:11:16.899Z,76.82
2022-08-21T00:13:49.557Z,76.33
2022-08-21T00:16:19.242Z,76.10
2022-08-21T00:18:49.154Z,76.31
2022-08-21T00:21:19.027Z,75.88
2022-08-21T00:23:48.702Z,75.36
2022-08-21T00:26:18.363Z,75.20
2022-08-21T00:28:50.593Z,75.08
2022-08-21T00:31:21.592Z,75.30
2022-08-21T00:33:51.371Z,75.33
2022-08-21T00:36:21.237Z,75.89
2022-08-21T00:38:50.973Z,76.27
2022-08-21T00:41:36.724Z,76.83
2022-08-21T00:44:13.073Z,77.42
2022-08-21T00:46:44.293Z,77.40
2022-08-21T00:49:16.126Z,77.61
2022-08-21T00:51:51.175Z,77.29
2022-08-21T00:54:22.261Z,77.22
2022-08-21T00:56:55.618Z,77.04
2022-08-21T00:59:36.217Z,76.45
2022-08-21T01:02:08.274Z,77.17
2022-08-21T01:04:38.548Z,76.95
2022-08-21T01:07:09.230Z,76.60
2022-08-21T01:09:39.815Z,77.11
2022-08-21T01:12:10.237Z,77.30
2022-08-21T01:14:44.854Z,76.58
2022-08-21T01:17:16.590Z,76.83
2022-08-21T01:19:46.978Z,76.83
2022-08-21T01:22:20.460Z,76.51
2022-08-21T01:24:51.113Z,77.16
2022-08-21T01:27:20.824Z,77.08
2022-08-21T01:29:58.933Z,77.02
2022-08-21T01:32:28.705Z,77.35
2022-08-21T01:34:58.410Z,78.15
2022-08-21T01:37:30.680Z,78.30
2022-08-21T01:40:00.441Z,77.80
2022-08-21T01:42:30.391Z,78.07
2022-08-21T01:45:00.184Z,77.86
2022-08-21T01:47:30.206Z,77.94
2022-08-21T01:49:59.917Z,78.73
2022-08-21T01:52:32.737Z,78.91
2022-08-21T01:55:02.447Z,79.49
2022-08-21T01:57:32.203Z,79.68
2022-08-21T02:00:02.184Z,79.92
2022-08-21T02:02:41.941Z,79.45
2022-08-21T02:05:14.244Z,79.75
2022-08-21T02:07:49.073Z,79.45
2022-08-21T02:10:22.393Z,79.07
2022-08-21T02:12:52.238Z,79.58
2022-08-21T02:15:22.412Z,80.18
2022-08-21T02:17:55.558Z,80.29
2022-08-21T02:20:28.645Z,80.44
2022-08-21T02:23:01.327Z,80.43
2022-08-21T02:25:32.041Z,80.18
2022-08-21T02:28:05.705Z,80.09
2022-08-21T02:30:38.960Z,80.41
2022-08-21T02:33:11.938Z,79.63
2022-08-21T02:35:43.330Z,80.22
2022-08-21T02:38:18.016Z,80.03
2022-08-21T02:40:50.883Z,80.12
2022-08-21T02:43:22.135Z,79.42
2022-08-21T02:45:53.778Z,79.71
2022-08-21T02:48:26.627Z,79.37
2022-08-21T02:50:59.354Z,78.53
2022-08-21T02:53:32.702Z,78.45
2022-08-21T02:56:05.855Z,78.50
2022-08-21T02:58:39.567Z,78.44
2022-08-21T03:01:10.686Z,79.13
2022-08-21T03:03:42.051Z,79.01
2022-08-21T03:06:13.994Z,79.06
2022-08-21T03:08:47.874Z,79.21
2022-08-21T03:11:21.511Z,79.70
2022-08-21T03:13:51.182Z,79.82
2022-08-21T03:16:21.733Z,79.82
2022-08-21T03:18:51.583Z,79.58
2022-08-21T03:21:21.246Z,79.81
2022-08-21T03:23:55.154Z,79.28
2022-08-21T03:26:25.309Z,79.58
2022-08-21T03:28:55.100Z,79.15
2022-08-21T03:31:24.753Z,79.19
2022-08-21T03:33:56.142Z,78.97
2022-08-21T03:36:25.929Z,79.07
2022-08-21T03:38:58.222Z,78.99
2022-08-21T03:41:27.850Z,79.38
2022-08-21T03:43:57.546Z,79.29
2022-08-21T03:46:27.224Z,79.42
2022-08-21T03:48:57.080Z,79.50
2022-08-21T03:51:26.755Z,79.69
2022-08-21T03:53:59.025Z,79.28
2022-08-21T03:56:29.097Z,79.03
2022-08-21T03:58:58.760Z,78.97
2022-08-21T04:01:28.574Z,78.42
2022-08-21T04:03:58.430Z,78.52
2022-08-21T04:06:28.574Z,79.18
2022-08-21T04:09:00.828Z,79.48
2022-08-21T04:11:30.458Z,79.90
2022-08-21T04:14:00.109Z,80.39
2022-08-21T04:16:29.760Z,80.61
2022-08-21T04:18:59.368Z,80.75
2022-08-21T04:21:29.046Z,80.58
2022-08-21T04:24:01.728Z,80.42
2022-08-21T04:26:32.150Z,80.49
2022-08-21T04:29:01.897Z,81.24
2022-08-21T04:31:31.836Z,81.35
2022-08-21T04:34:01.539Z,81.52
2022-08-21T04:36:31.394Z,80.32
2022-08-21T04:39:03.881Z,80.76
2022-08-21T04:41:34.741Z,81.94
2022-08-21T04:44:04.369Z,81.29
2022-08-21T04:46:34.130Z,81.01
2022-08-21T04:49:03.837Z,80.56
2022-08-21T04:51:36.858Z,80.17
2022-08-21T04:54:15.624Z,79.64
2022-08-21T04:56:47.952Z,80.04
2022-08-21T04:59:21.643Z,80.19
2022-08-21T05:01:52.884Z,80.03
2022-08-21T05:04:26.997Z,80.05
2022-08-21T05:06:58.490Z,79.91
2022-08-21T05:09:31.786Z,79.64
2022-08-21T05:12:01.618Z,79.86
2022-08-21T05:14:31.294Z,79.78
2022-08-21T05:17:00.994Z,80.45
2022-08-21T05:19:30.677Z,81.04
2022-08-21T05:22:01.838Z,81.66
2022-08-21T05:24:34.244Z,81.83
2022-08-21T05:27:04.638Z,82.33
2022-08-21T05:29:34.297Z,82.52
2022-08-21T05:32:04.241Z,82.05
2022-08-21T05:34:33.955Z,81.49
2022-08-21T05:37:07.520Z,81.52
2022-08-21T05:40:20.238Z,81.00
2022-08-21T05:42:29.732Z,81.53
2022-08-21T05:44:59.353Z,81.20
2022-08-21T05:47:29.613Z,81.15
2022-08-21T05:49:59.342Z,81.10
2022-08-21T05:52:29.054Z,80.99
2022-08-21T05:55:01.351Z,81.20
2022-08-21T05:57:31.206Z,80.80
2022-08-21T06:00:00.860Z,79.94
2022-08-21T06:02:31.750Z,79.07
2022-08-21T06:05:01.377Z,78.42
2022-08-21T06:07:31.081Z,77.18
2022-08-21T06:10:03.386Z,76.45
2022-08-21T06:12:33.053Z,77.10
2022-08-21T06:15:02.684Z,76.30
2022-08-21T06:17:32.317Z,76.13
2022-08-21T06:20:01.965Z,75.39
2022-08-21T06:22:32.230Z,75.30
2022-08-21T06:25:04.472Z,74.44
2022-08-21T06:27:34.200Z,74.60
2022-08-21T06:30:03.846Z,74.95
2022-08-21T06:32:33.526Z,74.15
2022-08-21T06:35:03.248Z,73.89
2022-08-21T06:37:33.068Z,73.09
2022-08-21T06:40:05.723Z,72.46
2022-08-21T06:42:42.942Z,71.79
2022-08-21T06:45:14.048Z,70.71
2022-08-21T06:47:43.744Z,69.69
2022-08-21T06:50:14.038Z,69.95
2022-08-21T06:52:43.865Z,68.83
2022-08-21T06:55:22.363Z,67.91
2022-08-21T06:57:53.414Z,67.95
2022-08-21T07:00:23.502Z,66.79
2022-08-21T07:02:53.275Z,65.88
2022-08-21T07:05:23.166Z,67.59
2022-08-21T07:07:52.952Z,66.77
2022-08-21T07:10:26.206Z,65.81
2022-08-21T07:13:00.679Z,66.18
2022-08-21T07:15:32.335Z,66.46
2022-08-21T07:18:02.463Z,65.65
2022-08-21T07:20:33.650Z,65.21
2022-08-21T07:23:06.081Z,65.39
2022-08-21T07:25:38.845Z,64.67
2022-08-21T07:28:08.589Z,63.38
2022-08-21T07:30:38.253Z,63.68
2022-08-21T07:33:08.338Z,62.51
2022-08-21T07:35:38.016Z,62.17
2022-08-21T07:38:07.841Z,63.44
2022-08-21T07:40:40.178Z,63.25
2022-08-21T07:43:10.095Z,61.25
2022-08-21T07:45:39.805Z,60.68
2022-08-21T07:48:09.560Z,61.09
2022-08-21T07:50:40.268Z,59.87
2022-08-21T07:53:09.995Z,58.43
2022-08-21T07:55:42.479Z,59.26
2022-08-21T07:58:12.390Z,58.27
2022-08-21T08:00:42.857Z,58.77
2022-08-21T08:03:12.801Z,58.57
2022-08-21T08:05:42.550Z,58.10
2022-08-21T08:08:12.691Z,57.88
2022-08-21T08:10:46.073Z,57.39
2022-08-21T08:13:15.713Z,58.53
2022-08-21T08:15:45.453Z,57.06
2022-08-21T08:18:16.176Z,57.53
2022-08-21T08:20:46.962Z,56.58
2022-08-21T08:23:18.386Z,55.18
2022-08-21T08:25:50.685Z,56.39
2022-08-21T08:28:22.880Z,55.17
2022-08-21T08:30:53.433Z,54.96
2022-08-21T08:33:25.202Z,53.82
2022-08-21T08:35:56.463Z,54.35
2022-08-21T08:38:28.447Z,54.02
2022-08-21T08:41:05.450Z,54.57
2022-08-21T08:43:38.025Z,53.94
2022-08-21T08:46:15.430Z,52.16
2022-08-21T08:48:55.382Z,52.86
2022-08-21T08:51:29.263Z,52.76
2022-08-21T08:54:05.350Z,52.06
2022-08-21T08:56:38.085Z,52.84
2022-08-21T08:59:15.230Z,50.97
2022-08-21T09:01:45.966Z,51.56
2022-08-21T09:04:21.902Z,51.18
2022-08-21T09:07:02.132Z,51.31
2022-08-21T09:09:45.342Z,51.69
2022-08-21T09:12:22.508Z,52.42
2022-08-21T09:15:06.045Z,51.43
2022-08-21T09:17:46.023Z,50.45
2022-08-21T09:20:26.472Z,50.00
2022-08-21T09:23:11.640Z,51.46
2022-08-21T09:25:49.552Z,49.21
2022-08-21T09:28:21.905Z,50.05
2022-08-21T09:30:52.684Z,50.09
2022-08-21T09:33:24.010Z,49.70
2022-08-21T09:35:58.737Z,51.54
2022-08-21T09:38:32.739Z,49.83
2022-08-21T09:41:08.015Z,51.11
2022-08-21T09:43:41.287Z,49.82
2022-08-21T09:46:13.834Z,48.29
2022-08-21T09:48:47.412Z,48.70
2022-08-21T09:51:20.344Z,48.08
2022-08-21T09:53:53.156Z,49.62
2022-08-21T09:56:42.445Z,48.61
2022-08-21T09:59:36.352Z,48.33
2022-08-21T10:02:25.399Z,49.36
2022-08-21T10:04:57.222Z,49.30
2022-08-21T10:07:29.888Z,49.60
2022-08-21T10:10:09.852Z,48.00
2022-08-21T10:12:48.886Z,49.56
2022-08-21T10:15:28.042Z,48.89
2022-08-21T10:18:07.669Z,49.39
2022-08-21T10:20:44.460Z,49.03
2022-08-21T10:23:32.116Z,48.95
2022-08-21T10:26:14.129Z,48.51
2022-08-21T10:29:00.014Z,47.62
2022-08-21T10:31:40.991Z,47.21
2022-08-21T10:34:27.513Z,49.01
2022-08-21T10:37:16.550Z,47.26
2022-08-21T10:39:57.201Z,49.12
2022-08-21T10:42:36.990Z,47.31
2022-08-21T10:45:17.650Z,48.04
2022-08-21T10:47:58.006Z,46.84
2022-08-21T10:50:34.957Z,45.80
2022-08-21T10:53:19.352Z,46.87
2022-08-21T10:55:56.009Z,46.63
2022-08-21T10:58:31.006Z,46.60
2022-08-21T11:01:08.494Z,45.44
2022-08-21T11:03:45.239Z,44.63
2022-08-21T11:06:18.363Z,43.20
2022-08-21T11:08:53.265Z,44.73
2022-08-21T11:11:28.143Z,44.14
2022-08-21T11:14:08.173Z,45.38
2022-08-21T11:16:45.674Z,45.09
2022-08-21T11:19:25.019Z,43.43
2022-08-21T11:22:01.393Z,43.27
2022-08-21T11:24:35.815Z,43.72
2022-08-21T11:27:13.624Z,42.50
2022-08-21T11:29:47.578Z,44.39
2022-08-21T11:32:47.288Z,44.00
2022-08-21T11:35:26.441Z,44.32
2022-08-21T11:38:16.188Z,43.81
2022-08-21T11:40:58.296Z,42.55
2022-08-21T11:43:40.206Z,42.28
2022-08-21T11:46:21.321Z,43.36
2022-08-21T11:49:10.127Z,43.44
2022-08-21T11:51:48.158Z,44.94
2022-08-21T11:54:27.782Z,43.17
2022-08-21T11:57:02.550Z,42.00
2022-08-21T11:59:41.019Z,40.34
2022-08-21T12:02:16.217Z,41.65
2022-08-21T12:04:50.142Z,42.57
2022-08-21T12:07:35.088Z,43.01
2022-08-21T12:10:07.993Z,42.36
2022-08-21T12:12:39.775Z,43.23
2022-08-21T12:15:31.267Z,42.85
2022-08-21T12:18:05.361Z,42.47
2022-08-21T12:20:50.571Z,42.37
2022-08-21T12:23:32.926Z,41.70
2022-08-21T12:26:17.896Z,41.57
2022-08-21T12:28:47.685Z,40.11
2022-08-21T12:31:26.929Z,41.39
2022-08-21T12:34:04.284Z,41.05
2022-08-21T12:36:45.396Z,40.08
2022-08-21T12:39:22.933Z,40.92
2022-08-21T12:42:01.649Z,40.50
2022-08-21T12:44:38.229Z,43.24
2022-08-21T12:47:16.988Z,43.64
2022-08-21T12:49:55.701Z,43.62
2022-08-21T12:52:28.270Z,42.05
2022-08-21T12:55:00.573Z,42.25
2022-08-21T12:57:31.872Z,41.17
2022-08-21T13:00:04.270Z,40.87
2022-08-21T13:02:36.635Z,40.94
2022-08-21T13:05:08.389Z,40.69
2022-08-21T13:07:40.506Z,41.16
2022-08-21T13:10:27.712Z,41.29
2022-08-21T13:12:59.896Z,39.94
2022-08-21T13:15:33.634Z,40.65
2022-08-21T13:18:05.507Z,40.89
2022-08-21T13:20:39.216Z,41.96
2022-08-21T13:23:26.675Z,40.03
2022-08-21T13:25:59.803Z,40.09
2022-08-21T13:28:38.692Z,41.24
2022-08-21T13:31:13.983Z,40.51
2022-08-21T13:33:48.036Z,40.27
2022-08-21T13:36:22.943Z,40.52
2022-08-21T13:38:54.530Z,40.33
2022-08-21T13:41:32.145Z,41.09
2022-08-21T13:44:05.738Z,41.34
2022-08-21T13:46:39.881Z,40.99
2022-08-21T13:49:10.887Z,40.80
2022-08-21T13:51:41.236Z,41.85
2022-08-21T13:54:19.662Z,41.31
2022-08-21T13:56:52.247Z,41.63
2022-08-21T13:59:31.145Z,40.61
2022-08-21T14:02:05.318Z,41.04
2022-08-21T14:04:39.139Z,40.64
2022-08-21T14:07:20.096Z,39.48
2022-08-21T14:09:51.333Z,41.01
2022-08-21T14:12:31.847Z,40.50
2022-08-21T14:15:08.611Z,39.78
2022-08-21T14:17:45.065Z,40.37
2022-08-21T14:20:31.483Z,40.27
2022-08-21T14:23:01.287Z,41.87
2022-08-21T14:25:34.230Z,41.84
2022-08-21T14:28:22.143Z,41.34
2022-08-21T14:30:58.450Z,41.76
2022-08-21T14:33:31.563Z,40.47
2022-08-21T14:36:02.965Z,41.68
2022-08-21T14:38:33.261Z,40.50
2022-08-21T14:41:16.809Z,41.02
2022-08-21T14:44:04.044Z,41.07
2022-08-21T14:46:45.837Z,42.06
2022-08-21T14:49:27.447Z,41.82
2022-08-21T14:51:58.720Z,41.36
2022-08-21T14:54:31.069Z,41.07
2022-08-21T14:57:04.285Z,41.23
2022-08-21T14:59:39.120Z,42.33
2022-08-21T15:02:09.687Z,42.51
2022-08-21T15:04:39.514Z,42.78
2022-08-21T15:07:09.322Z,42.94
2022-08-21T15:09:38.927Z,43.41
2022-08-21T15:12:10.932Z,42.32
2022-08-21T15:14:45.779Z,41.63
2022-08-21T15:17:15.801Z,40.36
2022-08-21T15:19:45.412Z,39.87
2022-08-21T15:22:18.756Z,40.13
2022-08-21T15:24:48.994Z,39.77
2022-08-21T15:27:20.877Z,40.06
2022-08-21T15:29:54.421Z,39.00
2022-08-21T15:32:27.329Z,37.68
2022-08-21T15:34:58.464Z,37.61
2022-08-21T15:37:28.838Z,37.00
2022-08-21T15:39:58.686Z,37.06
2022-08-21T15:42:30.476Z,38.51
2022-08-21T15:45:02.943Z,39.72
2022-08-21T15:47:35.987Z,39.59
2022-08-21T15:50:10.512Z,38.97
2022-08-21T15:52:40.243Z,41.27
2022-08-21T15:55:11.419Z,41.76
2022-08-21T15:57:57.141Z,40.06
2022-08-21T16:00:35.130Z,40.29
2022-08-21T16:03:08.269Z,39.85
2022-08-21T16:05:38.882Z,39.90
2022-08-21T16:08:08.542Z,39.30
2022-08-21T16:10:39.191Z,38.56
2022-08-21T16:13:15.183Z,38.82
2022-08-21T16:15:47.524Z,38.85
2022-08-21T16:18:17.636Z,39.04
2022-08-21T16:20:52.736Z,38.84
2022-08-21T16:23:22.412Z,39.60
2022-08-21T16:25:53.192Z,40.20
2022-08-21T16:28:25.011Z,40.14
2022-08-21T16:30:57.188Z,39.74
2022-08-21T16:33:33.763Z,39.97
2022-08-21T16:36:05.961Z,39.73
2022-08-21T16:38:38.072Z,40.14
2022-08-21T16:41:16.704Z,40.07
2022-08-21T16:43:47.416Z,40.23
2022-08-21T16:46:24.809Z,39.98
2022-08-21T16:48:54.640Z,40.49
2022-08-21T16:51:25.307Z,40.47
2022-08-21T16:53:55.066Z,40.11
2022-08-21T16:56:24.806Z,40.34
2022-08-21T16:58:56.763Z,40.47
2022-08-21T17:01:32.553Z,40.13
2022-08-21T17:04:03.878Z,40.37
2022-08-21T17:06:33.937Z,40.87
2022-08-21T17:09:03.998Z,41.48
2022-08-21T17:11:37.043Z,41.32
2022-08-21T17:14:10.306Z,41.60
2022-08-21T17:16:44.515Z,41.72
2022-08-21T17:19:14.654Z,42.97
2022-08-21T17:21:46.343Z,42.16
2022-08-21T17:24:16.520Z,42.22
2022-08-21T17:26:47.183Z,42.18
2022-08-21T17:29:18.918Z,43.18
2022-08-21T17:31:52.247Z,42.44
2022-08-21T17:34:23.022Z,43.17
2022-08-21T17:36:56.934Z,42.75
2022-08-21T17:39:26.853Z,43.03
2022-08-21T17:41:58.301Z,43.35
2022-08-21T17:44:30.041Z,43.34
2022-08-21T17:47:02.396Z,43.11
2022-08-21T17:49:32.035Z,42.61
2022-08-21T17:52:02.969Z,42.77
2022-08-21T17:54:32.764Z,43.90
2022-08-21T17:57:02.663Z,43.67
2022-08-21T17:59:32.349Z,44.17
2022-08-21T18:02:12.576Z,44.11
2022-08-21T18:04:50.374Z,43.84
2022-08-21T18:07:32.032Z,44.36
2022-08-21T18:10:02.990Z,44.26
2022-08-21T18:12:33.521Z,45.37
2022-08-21T18:15:04.743Z,45.06
2022-08-21T18:17:38.186Z,46.16
2022-08-21T18:20:12.194Z,46.33
2022-08-21T18:22:42.879Z,46.44
2022-08-21T18:25:13.519Z,46.81
2022-08-21T18:27:45.831Z,46.68
2022-08-21T18:30:19.080Z,47.21
2022-08-21T18:32:51.533Z,47.30
2022-08-21T18:35:21.343Z,48.01
2022-08-21T18:37:50.913Z,48.01
2022-08-21T18:40:21.260Z,48.26
2022-08-21T18:42:55.863Z,48.73
2022-08-21T18:45:26.174Z,48.64
2022-08-21T18:48:03.616Z,48.65
2022-08-21T18:50:33.371Z,49.13
2022-08-21T18:53:07.936Z,49.23
2022-08-21T18:55:53.706Z,49.62
2022-08-21T18:58:28.811Z,49.69
2022-08-21T19:00:59.118Z,50.17
2022-08-21T19:03:31.370Z,50.25
2022-08-21T19:06:01.249Z,50.21
2022-08-21T19:08:32.495Z,50.29
2022-08-21T19:11:03.269Z,51.13
2022-08-21T19:13:34.346Z,51.46
2022-08-21T19:16:05.809Z,51.21
2022-08-21T19:18:44.073Z,51.30
2022-08-21T19:21:14.131Z,51.50
2022-08-21T19:23:52.602Z,52.04
2022-08-21T19:26:24.659Z,52.26
2022-08-21T19:28:59.749Z,52.40
2022-08-21T19:31:34.000Z,52.88
2022-08-21T19:34:09.673Z,53.04
2022-08-21T19:36:42.252Z,53.24
2022-08-21T19:39:12.624Z,53.54
2022-08-21T19:41:45.577Z,53.90
2022-08-21T19:44:20.578Z,54.19
2022-08-21T19:46:52.673Z,54.14
2022-08-21T19:49:27.525Z,54.22
2022-08-21T19:51:58.359Z,54.68
2022-08-21T19:54:31.184Z,55.21
2022-08-21T19:57:04.674Z,55.59
2022-08-21T19:59:37.683Z,56.21
2022-08-21T20:02:10.204Z,56.46
2022-08-21T20:07:33.288Z,56.71
2022-08-21T20:10:03.548Z,56.86
2022-08-21T20:12:33.568Z,56.87
2022-08-21T20:15:03.496Z,57.28
2022-08-21T20:17:38.799Z,57.63
2022-08-21T20:20:11.960Z,57.51
2022-08-21T20:22:41.998Z,57.91
2022-08-21T20:25:12.882Z,57.71
2022-08-21T20:27:44.667Z,58.00
2022-08-21T20:30:22.637Z,58.58
2022-08-21T20:32:52.673Z,59.21
2022-08-21T20:35:25.920Z,59.30
2022-08-21T20:37:58.718Z,59.63
2022-08-21T20:40:33.010Z,59.10
2022-08-21T20:43:21.546Z,59.67
2022-08-21T20:45:52.106Z,59.87
2022-08-21T20:48:28.055Z,59.77
2022-08-21T20:51:07.915Z,60.15
2022-08-21T20:53:44.495Z,60.19
2022-08-21T20:56:23.038Z,60.19
2022-08-21T20:58:57.886Z,60.34
2022-08-21T21:01:34.199Z,60.64
2022-08-21T21:04:09.979Z,61.06
2022-08-21T21:07:02.418Z,60.93
2022-08-21T21:09:40.291Z,61.07
2022-08-21T21:12:18.715Z,61.41
2022-08-21T21:15:01.587Z,61.74
2022-08-21T21:17:40.214Z,61.47
2022-08-21T21:20:14.416Z,61.63
2022-08-21T21:22:51.838Z,61.41
2022-08-21T21:25:26.898Z,62.23
2022-08-21T21:28:13.591Z,62.27
2022-08-21T21:30:46.491Z,62.62
2022-08-21T21:33:19.267Z,62.63
2022-08-21T21:35:52.291Z,62.37
2022-08-21T21:38:30.635Z,61.69
2022-08-21T21:41:11.742Z,62.38
2022-08-21T21:44:00.968Z,61.94
2022-08-21T21:46:46.134Z,62.45
2022-08-21T21:49:38.841Z,62.79
2022-08-21T21:52:18.447Z,63.16
2022-08-21T21:55:06.015Z,62.52
2022-08-21T21:58:03.539Z,63.28
2022-08-21T22:00:36.587Z,63.35
2022-08-21T22:03:14.147Z,63.53
2022-08-21T22:06:00.356Z,63.02
2022-08-21T22:08:42.887Z,63.67
2022-08-21T22:11:29.605Z,63.40
2022-08-21T22:14:06.302Z,63.89
2022-08-21T22:16:38.872Z,64.16
2022-08-21T22:19:16.546Z,64.21
2022-08-21T22:21:52.867Z,64.46
2022-08-21T22:24:28.271Z,64.33
2022-08-21T22:27:03.289Z,64.48
2022-08-21T22:29:48.292Z,64.54
2022-08-21T22:32:26.105Z,65.40
2022-08-21T22:35:12.635Z,65.54
2022-08-21T22:37:45.978Z,65.81
2022-08-21T22:43:23.087Z,66.25
2022-08-21T22:46:00.715Z,66.39
2022-08-21T22:48:36.156Z,66.18
2022-08-21T22:51:10.258Z,66.46
2022-08-21T22:53:44.123Z,66.98
2022-08-21T22:56:31.763Z,66.99
2022-08-21T22:59:10.427Z,67.00
2022-08-21T23:01:45.499Z,67.14
2022-08-21T23:04:24.483Z,67.09
2022-08-21T23:06:59.401Z,67.61
2022-08-21T23:09:38.646Z,67.93
2022-08-21T23:12:32.952Z,68.17
2022-08-21T23:15:11.513Z,68.58
2022-08-21T23:17:50.328Z,68.75
2022-08-21T23:20:25.979Z,69.49
2022-08-21T23:23:10.757Z,69.43
2022-08-21T23:26:00.266Z,69.78
2022-08-21T23:28:46.583Z,69.85
2022-08-21T23:31:29.738Z,69.43
2022-08-21T23:37:18.881Z,70.36
2022-08-21T23:40:06.412Z,70.15
2022-08-21T23:43:05.472Z,70.59
2022-08-21T23:45:48.842Z,70.80
2022-08-21T23:48:34.048Z,71.37
2022-08-21T23:51:13.393Z,71.52
2022-08-21T23:53:59.058Z,72.00
2022-08-21T23:56:44.753Z,71.84
